Time;durP1;ratioP1;P1;durP2;ratioP2;P2;SDS_P1;SDS_P2;PMS_P1;PMS_P2;Temp;Humidity;BMP_temperature;BMP_pressure;BME280_temperature;BME280_humidity;BME280_pressure;Samples;Min_cycle;Max_cycle;Signal;HPM_P1;HPM_P2
2022/06/21 00:02:18;;;;;;;4.82;0.82;;;;;;;12.36;47.01;101625.44;5032577;28;20045;-68
2022/06/21 00:04:44;;;;;;;6.28;0.77;;;;;;;12.42;47.00;101626.06;5012881;28;20029;-68
2022/06/21 00:07:15;;;;;;;6.50;0.60;;;;;;;12.39;46.79;101631.41;5046094;28;21623;-69
2022/06/21 00:09:40;;;;;;;7.40;1.20;;;;;;;12.36;46.91;101635.91;5029641;28;20509;-69
2022/06/21 00:12:11;;;;;;;7.30;0.88;;;;;;;12.33;47.26;101630.75;5050138;28;20231;-69
2022/06/21 00:14:37;;;;;;;10.33;0.83;;;;;;;12.39;47.19;101625.31;5031389;28;20482;-68
2022/06/21 00:17:03;;;;;;;4.93;0.50;;;;;;;12.35;46.81;101631.56;5031798;28;20048;-69
2022/06/21 00:19:30;;;;;;;8.73;0.63;;;;;;;12.29;46.80;101623.03;5038913;28;20040;-68
2022/06/21 00:21:56;;;;;;;7.70;0.40;;;;;;;12.39;47.12;101627.94;5047380;28;20037;-68
2022/06/21 00:24:21;;;;;;;4.55;0.70;;;;;;;11.90;47.67;101632.25;5042074;28;20102;-69
2022/06/21 00:26:47;;;;;;;3.72;0.50;;;;;;;12.15;47.34;101627.88;5030377;28;20047;-69
2022/06/21 00:29:13;;;;;;;4.47;0.40;;;;;;;12.09;47.39;101625.47;5016828;28;20028;-70
2022/06/21 00:31:48;;;;;;;5.55;0.20;;;;;;;12.37;46.94;101627.13;5032862;28;20043;-68
2022/06/21 00:34:17;;;;;;;7.85;0.45;;;;;;;12.20;46.92;101631.22;5034212;28;20077;-69
2022/06/21 00:36:43;;;;;;;5.07;1.08;;;;;;;12.16;47.04;101624.34;5033124;28;20037;-69
2022/06/21 00:39:12;;;;;;;4.70;0.40;;;;;;;12.25;47.11;101623.19;5036012;28;20107;-71
2022/06/21 00:41:47;;;;;;;3.63;0.88;;;;;;;12.25;46.84;101631.03;5037969;28;20064;-70
2022/06/21 00:44:35;;;;;;;7.15;0.40;;;;;;;12.30;47.23;101631.72;5033477;28;20041;-70
2022/06/21 00:47:12;;;;;;;6.05;1.25;;;;;;;12.32;47.19;101626.44;5035232;28;20308;-71
2022/06/21 00:49:56;;;;;;;7.72;1.20;;;;;;;12.19;47.79;101623.38;5034319;28;20574;-71
2022/06/21 00:53:01;;;;;;;6.75;0.47;;;;;;;12.30;47.54;101610.75;5051775;28;20036;-76
2022/06/21 00:56:05;;;;;;;3.42;0.85;;;;;;;12.35;47.09;101607.97;5036316;28;20045;-71
2022/06/21 00:58:31;;;;;;;10.32;1.00;;;;;;;12.44;46.88;101591.91;4981124;28;20610;-72
2022/06/21 01:01:03;;;;;;;5.05;0.50;;;;;;;12.49;46.82;101596.09;5021440;28;20121;-71
2022/06/21 01:03:36;;;;;;;7.90;0.73;;;;;;;12.50;46.43;101597.78;5028626;28;20403;-71
2022/06/21 01:06:08;;;;;;;5.68;0.63;;;;;;;12.55;46.36;101597.63;5029809;28;20513;-72
2022/06/21 01:08:35;;;;;;;;;;;;;;;12.52;46.39;101595.13;5028379;28;20045;-72
2022/06/21 01:11:05;;;;;;;3.55;0.43;;;;;;;12.55;46.57;101602.84;5050330;28;20358;-71
2022/06/21 01:13:35;;;;;;;8.80;0.65;;;;;;;12.51;46.75;101609.13;5029773;28;20045;-71
2022/06/21 01:16:01;;;;;;;8.38;0.73;;;;;;;12.55;46.99;101608.09;5029719;28;20098;-71
2022/06/21 01:18:27;;;;;;;3.40;0.73;;;;;;;12.50;46.96;101610.03;5030936;28;20040;-71
2022/06/21 01:20:55;;;;;;;8.13;0.75;;;;;;;12.44;47.16;101612.88;5033077;28;20037;-72
2022/06/21 01:23:49;;;;;;;3.78;0.93;;;;;;;12.54;47.10;101603.78;5027817;28;20041;-71
2022/06/21 01:26:43;;;;;;;7.63;0.50;;;;;;;12.59;46.75;101604.47;5028591;28;20118;-71
2022/06/21 01:29:19;;;;;;;3.05;0.55;;;;;;;12.60;47.15;101608.81;5032730;28;20045;-71
2022/06/21 01:31:45;;;;;;;1.80;0.30;;;;;;;12.61;46.86;101609.66;5041707;28;20818;-71
2022/06/21 01:34:29;;;;;;;6.93;0.55;;;;;;;12.67;46.82;101610.28;5033890;28;20518;-71
2022/06/21 01:37:23;;;;;;;9.40;0.90;;;;;;;12.59;46.78;101614.09;5025134;28;20037;-72
2022/06/21 01:40:03;;;;;;;3.47;0.40;;;;;;;12.67;47.04;101605.03;5029594;28;20257;-72
2022/06/21 01:42:54;;;;;;;7.10;0.30;;;;;;;12.74;46.50;101605.69;5030133;28;20041;-72
2022/06/21 01:45:34;;;;;;;2.97;0.67;;;;;;;12.55;46.49;101600.22;5023979;28;20464;-71
2022/06/21 01:48:17;;;;;;;6.78;1.05;;;;;;;12.40;46.91;101590.31;5046210;28;20114;-72
2022/06/21 01:50:45;;;;;;;1.88;0.30;;;;;;;12.41;47.29;101602.50;5030192;28;20033;-72
2022/06/21 01:53:13;;;;;;;3.10;0.80;;;;;;;12.29;47.13;101593.34;5026480;28;20042;-72
2022/06/21 01:55:44;;;;;;;6.85;0.30;;;;;;;12.35;46.85;101600.09;5034601;28;20414;-73
2022/06/21 01:58:13;;;;;;;3.70;0.50;;;;;;;12.38;47.08;101597.38;5035652;28;20136;-73
2022/06/21 02:00:43;;;;;;;5.28;0.30;;;;;;;12.32;47.01;101589.75;5049947;28;20045;-72
2022/06/21 02:03:15;;;;;;;6.28;0.32;;;;;;;12.34;46.78;101580.06;5040795;28;20061;-74
2022/06/21 02:05:46;;;;;;;4.53;0.30;;;;;;;12.28;46.76;101581.97;5060990;28;20059;-66
2022/06/21 02:08:16;;;;;;;3.60;0.75;;;;;;;12.24;46.84;101579.53;5043182;28;20533;-66
2022/06/21 02:10:47;;;;;;;8.77;0.55;;;;;;;12.19;46.78;101576.22;5047023;28;20045;-73
2022/06/21 02:13:31;;;;;;;3.90;0.53;;;;;;;12.23;47.02;101570.81;5028106;28;20128;-71
2022/06/21 02:16:00;;;;;;;7.38;0.60;;;;;;;12.07;46.73;101567.03;5031373;28;20095;-72
2022/06/21 02:18:30;;;;;;;7.93;1.52;;;;;;;12.06;46.80;101567.94;5030167;28;20094;-72
2022/06/21 02:21:15;;;;;;;9.98;0.45;;;;;;;11.93;46.82;101570.09;5031270;28;20674;-72
2022/06/21 02:23:41;;;;;;;3.88;0.63;;;;;;;11.95;46.79;101567.44;5029297;28;20049;-71
2022/06/21 02:26:09;;;;;;;4.88;0.25;;;;;;;11.75;47.08;101566.31;5015638;28;20528;-71
2022/06/21 02:28:35;;;;;;;3.50;0.30;;;;;;;11.73;47.20;101573.41;5034551;28;20068;-73
2022/06/21 02:31:00;;;;;;;11.20;1.10;;;;;;;11.83;47.20;101572.19;5028283;28;20060;-72
2022/06/21 02:33:30;;;;;;;2.20;0.40;;;;;;;11.64;47.17;101574.56;5029951;28;20638;-73
2022/06/21 02:36:08;;;;;;;4.47;0.43;;;;;;;11.71;47.07;101580.47;5029065;28;20210;-74
2022/06/21 02:38:56;;;;;;;5.93;0.52;;;;;;;11.67;47.09;101581.47;5034043;28;20060;-72
2022/06/21 02:41:24;;;;;;;2.97;0.30;;;;;;;11.70;47.05;101577.88;5032327;28;20695;-72
2022/06/21 02:43:56;;;;;;;4.63;0.75;;;;;;;11.63;47.41;101567.59;5024730;28;20045;-73
2022/06/21 02:46:36;;;;;;;6.00;0.73;;;;;;;11.61;47.22;101565.94;5046130;28;20040;-73
2022/06/21 02:49:16;;;;;;;14.18;1.45;;;;;;;11.62;47.14;101565.03;5030952;28;20048;-72
2022/06/21 02:51:47;;;;;;;7.10;0.60;;;;;;;11.41;47.28;101562.22;5035276;28;20037;-73
2022/06/21 02:54:39;;;;;;;1.13;0.38;;;;;;;11.49;47.56;101558.53;5031981;28;20045;-74
2022/06/21 02:57:09;;;;;;;6.40;0.60;;;;;;;11.50;47.38;101565.44;4992760;28;20060;-73
2022/06/21 02:59:38;;;;;;;5.18;0.40;;;;;;;11.55;47.37;101560.91;5024992;28;20044;-73
2022/06/21 03:02:13;;;;;;;7.05;0.60;;;;;;;11.53;47.33;101567.94;5030283;28;20503;-72
2022/06/21 03:04:43;;;;;;;4.63;0.38;;;;;;;11.52;47.55;101563.63;5037999;28;20090;-73
2022/06/21 03:07:16;;;;;;;5.95;1.13;;;;;;;11.45;47.71;101561.22;5033030;28;20045;-74
2022/06/21 03:09:42;;;;;;;3.65;0.40;;;;;;;11.40;47.77;101563.13;5032471;28;20059;-73
2022/06/21 03:12:15;;;;;;;3.85;0.35;;;;;;;11.34;47.63;101560.72;5037306;28;20502;-73
2022/06/21 03:14:40;;;;;;;7.90;0.63;;;;;;;11.21;48.02;101554.16;5032690;28;20036;-75
2022/06/21 03:17:08;;;;;;;2.05;0.20;;;;;;;11.21;48.04;101557.63;5035181;28;20041;-73
2022/06/21 03:19:41;;;;;;;1.67;0.73;;;;;;;11.28;48.03;101550.44;5034086;28;20041;-75
2022/06/21 03:22:25;;;;;;;3.35;0.45;;;;;;;11.38;47.76;101554.47;5039909;28;20041;-74
2022/06/21 03:24:54;;;;;;;3.00;0.50;;;;;;;11.45;48.21;101555.97;5033835;28;20053;-74
2022/06/21 03:27:31;;;;;;;4.32;0.70;;;;;;;11.53;48.22;101560.09;5037656;28;20037;-74
2022/06/21 03:29:57;;;;;;;2.55;1.08;;;;;;;11.64;48.03;101552.75;5034634;28;20052;-74
2022/06/21 03:32:25;;;;;;;3.40;0.40;;;;;;;11.79;47.77;101560.13;5036919;28;20060;-74
2022/06/21 03:34:51;;;;;;;7.28;0.50;;;;;;;11.90;47.68;101558.91;5053083;28;20036;-73
2022/06/21 03:37:18;;;;;;;5.43;0.43;;;;;;;11.99;47.52;101558.56;5040137;28;20037;-74
2022/06/21 03:42:35;;;;;;;11.30;0.77;;;;;;;12.16;47.40;101544.91;5031360;28;20827;-73
2022/06/21 03:45:12;;;;;;;2.63;0.30;;;;;;;12.08;47.00;101551.22;5035072;28;20059;-72
2022/06/21 03:47:46;;;;;;;4.93;0.63;;;;;;;12.13;47.60;101558.09;5030657;28;20055;-73
2022/06/21 03:50:22;;;;;;;4.00;0.40;;;;;;;12.12;47.65;101554.63;5033700;28;20708;-73
2022/06/21 03:53:07;;;;;;;3.75;0.60;;;;;;;12.12;47.57;101559.84;5031752;28;20230;-74
2022/06/21 03:55:41;;;;;;;6.68;1.13;;;;;;;12.17;47.41;101560.53;5035786;28;20551;-74
2022/06/21 03:58:16;;;;;;;2.63;0.43;;;;;;;12.15;47.49;101564.97;5035621;28;20061;-75
2022/06/21 04:00:47;;;;;;;4.68;0.55;;;;;;;12.17;47.54;101565.78;5024522;28;20097;-76
2022/06/21 04:03:29;;;;;;;4.55;0.57;;;;;;;12.25;47.44;101565.53;5045133;28;20532;-74
2022/06/21 04:06:20;;;;;;;7.75;0.38;;;;;;;12.23;47.47;101565.56;5037372;28;20547;-76
2022/06/21 04:08:52;;;;;;;8.25;0.70;;;;;;;12.20;47.53;101570.94;5041854;28;20049;-74
2022/06/21 04:11:26;;;;;;;5.03;0.55;;;;;;;12.28;47.60;101561.00;5027629;28;20033;-76
2022/06/21 04:14:11;;;;;;;4.60;0.47;;;;;;;12.46;47.57;101563.88;5030389;28;20043;-74
2022/06/21 04:16:44;;;;;;;3.15;0.70;;;;;;;12.59;46.88;101561.66;5038805;28;20040;-73
2022/06/21 04:19:38;;;;;;;2.80;0.30;;;;;;;12.62;46.17;101570.25;5033188;28;21046;-74
2022/06/21 04:22:14;;;;;;;7.35;0.70;;;;;;;12.68;46.18;101572.63;5032696;28;20041;-73
2022/06/21 04:24:49;;;;;;;4.38;0.55;;;;;;;12.80;46.63;101575.75;5032280;28;20204;-71
2022/06/21 04:27:26;;;;;;;3.78;0.60;;;;;;;12.78;46.24;101570.56;5037329;28;20213;-71
2022/06/21 04:30:12;;;;;;;3.33;0.85;;;;;;;12.73;46.01;101574.28;5034349;28;20044;-72
2022/06/21 04:32:47;;;;;;;5.03;0.80;;;;;;;12.58;46.21;101571.28;5036479;28;20124;-73
2022/06/21 04:35:25;;;;;;;4.93;1.10;;;;;;;12.39;46.70;101575.50;5047485;28;20029;-74
2022/06/21 04:38:07;;;;;;;7.32;0.80;;;;;;;12.19;47.04;101579.69;5045213;28;20037;-74
2022/06/21 04:40:53;;;;;;;5.05;1.13;;;;;;;12.08;47.67;101581.81;5048186;28;20052;-73
2022/06/21 04:43:40;;;;;;;3.47;1.00;;;;;;;11.98;47.99;101575.22;5051966;28;20048;-74
2022/06/21 04:46:21;;;;;;;4.70;1.50;;;;;;;12.06;48.24;101566.16;5048115;28;20060;-74
2022/06/21 04:48:57;;;;;;;3.72;0.98;;;;;;;12.05;48.17;101574.09;5061225;28;20049;-76
2022/06/21 04:51:34;;;;;;;7.13;1.02;;;;;;;12.22;47.91;101576.97;5036111;28;20672;-77
2022/06/21 04:54:03;;;;;;;7.47;1.23;;;;;;;12.22;47.80;101571.72;5029110;28;20047;-71
2022/06/21 04:56:52;;;;;;;1.42;0.70;;;;;;;12.33;48.00;101578.34;5036633;28;20026;-74
2022/06/21 04:59:26;;;;;;;5.78;0.45;;;;;;;12.36;47.44;101583.50;5048969;28;20044;-76
2022/06/21 05:01:53;;;;;;;3.30;0.43;;;;;;;12.47;47.69;101583.94;5048121;28;20032;-75
2022/06/21 05:04:24;;;;;;;3.70;0.68;;;;;;;12.75;47.40;101580.31;5042146;28;20487;-75
2022/06/21 05:06:50;;;;;;;4.45;0.80;;;;;;;13.23;46.76;101584.59;5026131;28;20047;-76
2022/06/21 05:09:20;;;;;;;4.65;1.25;;;;;;;14.71;43.71;101581.78;5047442;28;20041;-70
2022/06/21 05:11:51;;;;;;;5.03;1.45;;;;;;;17.38;37.92;101582.94;5027314;28;20033;-71
2022/06/21 05:14:24;;;;;;;6.20;1.00;;;;;;;19.49;34.70;101578.75;5032560;28;20064;-74
2022/06/21 05:16:52;;;;;;;1.65;0.73;;;;;;;21.10;30.84;101585.25;5041300;28;20068;-75
2022/06/21 05:19:23;;;;;;;4.45;0.50;;;;;;;22.06;28.55;101589.56;5041318;28;20029;-72
2022/06/21 05:22:12;;;;;;;3.88;0.77;;;;;;;23.27;26.95;101584.34;5032290;28;20064;-73
2022/06/21 05:24:38;;;;;;;1.65;0.40;;;;;;;23.24;25.42;101585.44;5034679;28;20445;-74
2022/06/21 05:27:12;;;;;;;2.72;0.85;;;;;;;23.00;27.46;101590.97;5018142;28;20037;-75
2022/06/21 05:30:11;;;;;;;2.25;0.63;;;;;;;23.73;26.72;101594.69;5029562;28;20048;-72
2022/06/21 05:32:52;;;;;;;4.15;0.32;;;;;;;24.31;24.34;101587.97;5022286;28;20055;-73
2022/06/21 05:35:21;;;;;;;3.38;0.30;;;;;;;24.28;23.79;101596.25;5033067;28;20037;-76
2022/06/21 05:37:56;;;;;;;2.03;0.38;;;;;;;24.06;24.44;101595.47;5026263;28;20033;-72
2022/06/21 05:40:52;;;;;;;4.97;0.63;;;;;;;24.34;24.99;101598.38;5035155;28;20032;-73
2022/06/21 05:43:24;;;;;;;3.75;0.70;;;;;;;25.13;23.21;101603.84;5029087;28;20138;-73
2022/06/21 05:45:56;;;;;;;5.22;0.60;;;;;;;24.64;23.18;101590.38;5015587;28;20032;-71
2022/06/21 05:48:25;;;;;;;3.25;0.60;;;;;;;22.85;25.46;101600.22;5033147;28;20052;-73
2022/06/21 05:50:51;;;;;;;4.60;0.50;;;;;;;21.52;27.43;101609.63;5031380;28;20039;-74
2022/06/21 05:53:26;;;;;;;4.68;0.90;;;;;;;20.12;29.66;101607.16;5033303;28;20071;-76
2022/06/21 05:55:52;;;;;;;3.53;0.50;;;;;;;18.55;32.70;101602.47;5036056;28;20493;-73
2022/06/21 05:58:28;;;;;;;4.70;0.50;;;;;;;17.11;34.38;101610.00;5035330;28;20049;-74
2022/06/21 06:01:06;;;;;;;3.33;0.70;;;;;;;16.95;35.48;101607.38;5028243;28;20063;-73
2022/06/21 06:03:53;;;;;;;5.13;0.68;;;;;;;16.20;37.05;101614.03;5041771;22;20077;-78
2022/06/21 06:06:20;;;;;;;4.72;1.05;;;;;;;15.90;38.19;101606.72;5007097;28;20025;-78
2022/06/21 06:09:01;;;;;;;4.00;0.50;;;;;;;17.06;37.25;101603.28;5003462;28;20480;-77
2022/06/21 06:11:57;;;;;;;2.53;0.40;;;;;;;18.07;33.65;101602.69;4989238;28;20511;-81
2022/06/21 06:14:19;;;;;;;6.13;0.57;;;;;;;17.91;33.40;101608.06;4999940;28;20038;-81
2022/06/21 06:16:49;;;;;;;1.95;0.40;;;;;;;18.51;34.03;101606.25;5003702;28;20041;-80
2022/06/21 06:19:27;;;;;;;7.45;1.80;;;;;;;20.13;30.76;101605.41;4989036;28;20034;-81
2022/06/21 06:22:05;;;;;;;2.88;0.60;;;;;;;19.58;32.20;101607.34;4976646;28;20049;-80
2022/06/21 06:24:41;;;;;;;1.67;0.90;;;;;;;19.47;31.83;101607.16;5000525;28;20547;-79
2022/06/21 06:27:20;;;;;;;4.68;0.30;;;;;;;18.71;33.19;101608.50;4987438;28;20407;-80
2022/06/21 06:29:49;;;;;;;5.32;0.45;;;;;;;17.59;35.32;101608.19;5001216;28;20034;-79
2022/06/21 06:32:29;;;;;;;1.80;0.75;;;;;;;17.42;35.96;101602.97;4977802;28;20104;-81
2022/06/21 06:34:56;;;;;;;1.40;0.45;;;;;;;16.35;38.07;101602.69;4997531;28;20044;-81
2022/06/21 06:37:31;;;;;;;3.17;0.43;;;;;;;16.59;37.16;101599.66;5014475;28;20049;-77
2022/06/21 06:39:59;;;;;;;9.27;0.70;;;;;;;18.41;33.82;101609.47;4986321;28;20042;-79
2022/06/21 06:42:27;;;;;;;2.58;0.95;;;;;;;19.85;31.56;101607.28;4958094;28;20061;-79
2022/06/21 06:44:57;;;;;;;6.95;0.98;;;;;;;19.05;32.50;101595.78;4986992;28;20069;-78
2022/06/21 06:47:37;;;;;;;3.28;0.70;;;;;;;18.45;34.13;101603.06;5004279;28;20091;-79
2022/06/21 06:50:24;;;;;;;2.80;0.40;;;;;;;17.42;35.39;101610.91;5013555;28;20060;-81
2022/06/21 06:53:03;;;;;;;2.78;0.73;;;;;;;17.26;35.81;101610.09;4983666;28;20049;-76
2022/06/21 06:56:04;;;;;;;6.07;0.40;;;;;;;17.28;36.52;101613.50;5004923;28;20033;-79
2022/06/21 06:58:56;;;;;;;1.67;0.40;;;;;;;16.66;35.88;101600.16;4965594;28;20604;-79
2022/06/21 07:01:38;;;;;;;6.47;0.57;;;;;;;16.67;36.64;101599.25;5006611;28;20037;-77
2022/06/21 07:04:05;;;;;;;5.80;0.50;;;;;;;16.58;36.55;101604.09;4999271;28;20678;-80
2022/06/21 07:06:31;;;;;;;2.78;0.55;;;;;;;16.55;36.97;101604.22;5002196;28;20077;-78
2022/06/21 07:09:04;;;;;;;3.20;0.55;;;;;;;16.73;36.81;101612.97;5015937;28;20072;-79
2022/06/21 07:11:38;;;;;;;2.65;0.60;;;;;;;16.49;37.44;101614.25;5003319;28;20165;-83
2022/06/21 07:14:12;;;;;;;3.60;1.13;;;;;;;16.30;36.76;101609.13;4960810;28;20118;-78
2022/06/21 07:16:40;;;;;;;2.65;0.40;;;;;;;16.21;37.55;101618.38;5004443;28;20073;-78
2022/06/21 07:19:09;;;;;;;4.32;0.63;;;;;;;16.20;37.95;101621.94;4999059;28;20064;-79
2022/06/21 07:21:37;;;;;;;5.80;0.90;;;;;;;17.13;36.82;101621.34;4994769;28;20026;-78
2022/06/21 07:24:03;;;;;;;3.90;0.57;;;;;;;21.73;29.68;101612.47;5007689;28;20058;-75
2022/06/21 07:26:44;;;;;;;3.80;0.52;;;;;;;25.05;24.61;101604.53;4994623;28;20499;-76
2022/06/21 07:29:19;;;;;;;3.50;0.77;;;;;;;27.44;20.46;101606.75;5014372;28;20053;-76
2022/06/21 07:31:58;;;;;;;5.95;0.40;;;;;;;27.56;20.15;101614.56;4983913;28;20025;-78
2022/06/21 07:34:32;;;;;;;2.50;0.30;;;;;;;28.53;19.01;101619.69;5007102;28;20514;-76
2022/06/21 07:37:04;;;;;;;3.30;0.30;;;;;;;30.38;16.58;101608.44;4995241;28;20046;-76
2022/06/21 07:39:55;;;;;;;1.58;0.40;;;;;;;31.52;16.30;101608.75;5003552;28;20030;-79
2022/06/21 07:42:30;;;;;;;2.70;0.20;;;;;;;30.90;17.07;101614.25;4994693;28;20041;-79
2022/06/21 07:45:07;;;;;;;2.17;0.30;;;;;;;28.87;18.35;101607.22;5001584;28;20089;-79
2022/06/21 07:48:03;;;;;;;3.20;0.40;;;;;;;25.23;22.74;101618.06;4984621;28;20057;-80
2022/06/21 07:50:34;;;;;;;1.33;0.30;;;;;;;22.29;26.03;101611.75;4980181;28;20443;-79
2022/06/21 07:53:17;;;;;;;5.03;0.75;;;;;;;21.44;26.97;101625.28;5014960;28;20107;-79
2022/06/21 07:56:11;;;;;;;3.97;0.40;;;;;;;23.89;24.15;101625.44;5018153;28;20041;-76
2022/06/21 07:58:49;;;;;;;2.50;0.20;;;;;;;24.74;22.77;101621.63;4981326;28;20046;-79
2022/06/21 08:07:20;;;;;;;4.97;0.43;;;;;;;30.08;17.54;101625.41;5005003;28;20037;-79
2022/06/21 08:10:04;;;;;;;1.23;0.25;;;;;;;27.02;19.34;101625.28;5013237;28;20539;-77
2022/06/21 08:12:30;;;;;;;1.55;0.38;;;;;;;25.04;22.46;101629.59;4972744;28;20053;-76
2022/06/21 08:14:55;;;;;;;4.03;0.20;;;;;;;23.05;25.34;101626.09;4990410;28;20061;-78
2022/06/21 08:17:30;;;;;;;2.75;0.50;;;;;;;21.26;28.78;101633.66;5003801;28;20060;-78
2022/06/21 08:20:04;;;;;;;2.67;0.30;;;;;;;19.73;30.37;101644.41;5000005;28;20025;-77
2022/06/21 08:22:43;;;;;;;6.28;0.70;;;;;;;18.65;32.67;101651.25;4983293;28;20038;-77
2022/06/21 08:25:36;;;;;;;5.38;0.50;;;;;;;18.84;32.44;101643.00;5023786;28;20030;-78
2022/06/21 08:28:07;;;;;;;3.35;0.60;;;;;;;18.62;32.62;101647.00;4962272;28;20060;-80
2022/06/21 08:30:57;;;;;;;1.17;0.20;;;;;;;20.80;29.36;101633.47;5021612;28;20129;-79
2022/06/21 08:33:44;;;;;;;2.35;0.40;;;;;;;25.83;22.36;101625.09;4959574;28;20042;-81
2022/06/21 08:36:25;;;;;;;2.20;0.55;;;;;;;27.97;19.60;101625.63;5006375;28;20046;-80
2022/06/21 08:38:58;;;;;;;3.83;0.30;;;;;;;29.81;17.35;101622.06;5004312;28;20072;-81
2022/06/21 08:42:02;;;;;;;5.05;0.45;;;;;;;31.75;16.23;101618.66;5003454;28;20048;-78
2022/06/21 08:44:50;;;;;;;2.38;0.30;;;;;;;29.36;17.29;101626.97;4963470;28;20045;-79
2022/06/21 08:47:56;;;;;;;3.33;0.40;;;;;;;26.40;21.03;101627.72;4985568;28;20046;-80
2022/06/21 08:50:28;;;;;;;3.25;0.57;;;;;;;24.43;23.83;101635.00;4983881;28;20038;-80
2022/06/21 08:53:08;;;;;;;2.75;0.30;;;;;;;21.98;25.69;101646.91;4998113;28;20046;-80
2022/06/21 08:55:42;;;;;;;6.13;0.70;;;;;;;21.47;27.32;101635.72;5001411;28;20064;-78
2022/06/21 08:58:30;;;;;;;1.20;0.40;;;;;;;22.56;26.63;101638.88;4999816;28;20111;-77
2022/06/21 09:01:04;;;;;;;3.42;0.30;;;;;;;23.92;23.11;101639.34;4998910;28;20121;-78
2022/06/21 09:03:48;;;;;;;1.20;0.40;;;;;;;25.69;22.19;101639.75;4985550;28;20044;-78
2022/06/21 09:06:42;;;;;;;2.72;0.45;;;;;;;28.64;17.63;101625.84;4981920;28;20027;-82
2022/06/21 09:09:16;;;;;;;3.35;0.40;;;;;;;29.64;17.61;101623.97;4982254;28;20267;-80
2022/06/21 09:12:00;;;;;;;3.42;0.20;;;;;;;28.62;19.18;101639.44;4983447;28;20187;-79
2022/06/21 09:14:26;;;;;;;2.28;0.30;;;;;;;25.35;21.99;101642.00;4997747;28;20029;-79
2022/06/21 09:17:21;;;;;;;1.10;0.20;;;;;;;23.26;24.58;101644.00;4998865;28;20046;-80
2022/06/21 09:20:05;;;;;;;3.28;0.70;;;;;;;21.75;26.62;101643.31;4996648;28;20057;-79
2022/06/21 09:22:50;;;;;;;1.60;0.30;;;;;;;21.80;27.57;101642.13;4998057;28;20029;-78
2022/06/21 09:25:44;;;;;;;2.53;0.32;;;;;;;24.00;26.05;101639.53;4985889;28;20030;-80
2022/06/21 09:28:22;;;;;;;3.13;0.28;;;;;;;26.83;21.28;101627.13;4975995;28;20129;-78
2022/06/21 09:31:18;;;;;;;2.60;0.40;;;;;;;27.96;18.98;101618.56;4999192;28;20084;-80
2022/06/21 09:33:48;;;;;;;2.03;0.30;;;;;;;28.73;17.70;101623.00;4972086;28;20077;-79
2022/06/21 09:36:13;;;;;;;6.82;1.48;;;;;;;29.55;17.69;101620.41;5000288;28;20030;-78
2022/06/21 09:38:42;;;;;;;1.52;0.20;;;;;;;28.65;18.15;101616.75;4997805;28;20052;-78
2022/06/21 09:41:20;;;;;;;3.25;0.40;;;;;;;28.95;18.47;101615.31;5000193;28;20041;-77
2022/06/21 09:44:19;;;;;;;4.00;0.60;;;;;;;28.06;20.04;101619.31;4999165;28;20160;-80
2022/06/21 09:47:06;;;;;;;1.55;0.10;;;;;;;25.91;21.33;101616.31;4994082;28;20046;-79
2022/06/21 09:49:45;;;;;;;2.30;0.45;;;;;;;24.57;23.15;101615.94;5021923;28;20065;-77
2022/06/21 09:52:35;;;;;;;4.97;0.20;;;;;;;23.32;24.95;101616.81;4987532;28;20573;-76
2022/06/21 09:55:27;;;;;;;2.05;0.45;;;;;;;24.33;23.15;101612.75;4995235;28;20038;-77
2022/06/21 09:58:13;;;;;;;2.90;0.47;;;;;;;24.86;22.22;101604.47;5005802;28;20106;-79
2022/06/21 10:00:43;;;;;;;0.93;0.22;;;;;;;24.73;23.39;101595.88;5009600;28;20045;-76
2022/06/21 10:03:59;;;;;;;1.85;0.25;;;;;;;24.81;21.50;101601.38;4988766;28;20068;-79
2022/06/21 10:06:43;;;;;;;1.10;0.20;;;;;;;24.81;21.66;101598.69;5024860;28;20036;-78
2022/06/21 10:09:26;;;;;;;2.03;0.30;;;;;;;24.67;21.72;101599.94;5007597;28;20114;-78
2022/06/21 10:12:32;;;;;;;3.22;0.28;;;;;;;24.83;22.74;101586.03;5019827;28;20179;-78
2022/06/21 10:15:35;;;;;;;2.40;0.55;;;;;;;23.98;24.02;101589.94;5009471;28;20053;-80
2022/06/21 10:18:30;;;;;;;3.08;0.30;;;;;;;24.49;23.59;101590.88;5005337;28;20058;-80
2022/06/21 10:21:22;;;;;;;4.97;0.60;;;;;;;24.98;21.74;101582.00;5013624;28;20044;-80
2022/06/21 10:24:15;;;;;;;0.60;0.20;;;;;;;25.26;21.78;101574.13;5007084;28;20050;-78
2022/06/21 10:27:00;;;;;;;2.60;0.20;;;;;;;24.88;22.26;101575.75;5007806;28;20034;-79
2022/06/21 10:29:35;;;;;;;2.60;0.40;;;;;;;23.93;24.10;101576.16;5011642;28;20060;-79
2022/06/21 10:32:15;;;;;;;3.38;0.57;;;;;;;23.06;24.54;101574.47;5008927;28;20038;-78
2022/06/21 10:35:06;;;;;;;3.77;0.37;;;;;;;22.33;24.26;101586.56;5008168;28;20038;-78
2022/06/21 10:38:02;;;;;;;1.95;0.57;;;;;;;22.29;24.60;101579.78;5007708;28;20296;-78
2022/06/21 10:40:56;;;;;;;1.33;0.25;;;;;;;23.62;25.30;101560.06;4990641;28;20042;-78
2022/06/21 10:43:41;;;;;;;0.80;0.28;;;;;;;24.38;23.64;101575.78;4997144;28;20074;-80
2022/06/21 10:46:33;;;;;;;5.65;0.30;;;;;;;23.05;25.89;101579.94;5011361;28;20027;-78
2022/06/21 10:49:39;;;;;;;4.78;0.35;;;;;;;22.33;26.58;101571.44;4996407;28;20042;-76
2022/06/21 10:52:49;;;;;;;2.08;0.28;;;;;;;21.82;27.50;101565.69;4994452;28;20050;-77
2022/06/21 10:59:00;;;;;;;3.78;0.75;;;;;;;21.87;27.24;101564.38;4994323;28;20074;-77
2022/06/21 11:02:17;;;;;;;3.78;0.63;;;;;;;21.58;28.06;101574.59;4998535;28;20093;-77
2022/06/21 11:05:17;;;;;;;5.15;0.35;;;;;;;21.68;28.02;101570.25;4992157;28;20041;-76
2022/06/21 11:08:04;;;;;;;2.90;0.28;;;;;;;21.89;28.53;101569.56;4989096;28;20124;-77
2022/06/21 11:10:43;;;;;;;2.83;0.73;;;;;;;22.94;26.80;101565.69;5003097;28;20044;-77
2022/06/21 11:13:24;;;;;;;4.55;0.40;;;;;;;23.49;25.85;101565.56;4987216;28;20041;-77
2022/06/21 11:16:59;;;;;;;3.92;0.35;;;;;;;23.32;25.97;101559.00;5007977;28;20060;-77
2022/06/21 11:19:32;;;;;;;2.50;0.40;;;;;;;22.82;27.31;101560.50;4979886;28;20050;-75
2022/06/21 11:22:13;;;;;;;2.53;0.25;;;;;;;23.06;25.08;101562.97;4994469;28;20080;-79
2022/06/21 11:25:20;;;;;;;1.20;0.22;;;;;;;22.44;26.07;101562.59;4995708;28;20273;-79
2022/06/21 11:28:17;;;;;;;3.47;1.05;;;;;;;22.54;26.22;101566.22;4977106;28;20112;-77
2022/06/21 11:31:04;;;;;;;2.78;0.35;;;;;;;22.20;25.48;101557.41;5002412;28;20129;-77
2022/06/21 11:34:07;;;;;;;2.92;0.30;;;;;;;23.17;25.80;101546.94;5017527;28;20049;-78
2022/06/21 11:36:42;;;;;;;1.95;0.20;;;;;;;23.93;23.51;101544.09;5000709;28;20652;-77
2022/06/21 11:39:36;;;;;;;4.95;0.60;;;;;;;22.64;24.86;101541.50;5018441;28;20077;-79
2022/06/21 11:42:25;;;;;;;2.40;0.40;;;;;;;22.09;26.08;101547.63;4957934;28;20041;-76
2022/06/21 11:45:14;;;;;;;2.70;0.22;;;;;;;22.53;29.16;101535.22;4999705;28;20030;-78
2022/06/21 11:48:21;;;;;;;0.80;0.20;;;;;;;22.24;27.90;101528.72;5004893;28;20058;-78
2022/06/21 11:50:55;;;;;;;6.07;0.50;;;;;;;21.61;27.91;101537.13;5000788;28;20038;-77
2022/06/21 11:53:46;;;;;;;6.05;0.38;;;;;;;21.72;27.87;101539.81;4982894;28;20101;-78
2022/06/21 11:56:28;;;;;;;1.45;0.43;;;;;;;22.34;26.34;101535.03;5002733;28;20041;-77
2022/06/21 11:59:27;;;;;;;4.82;0.20;;;;;;;22.81;26.44;101535.69;4958878;28;20050;-77
2022/06/21 12:02:09;;;;;;;3.15;0.38;;;;;;;24.15;24.98;101530.56;4956667;28;20045;-78
2022/06/21 12:04:35;;;;;;;1.52;0.30;;;;;;;24.50;23.79;101528.44;5004652;28;20038;-80
2022/06/21 12:07:07;;;;;;;0.75;0.28;;;;;;;24.99;22.04;101526.69;5000994;28;20041;-75
2022/06/21 12:10:18;;;;;;;4.30;1.10;;;;;;;25.04;23.58;101522.63;5003725;28;20092;-79
2022/06/21 12:13:01;;;;;;;0.90;0.30;;;;;;;24.31;23.52;101522.03;4994506;28;20987;-79
2022/06/21 12:15:42;;;;;;;2.88;0.45;;;;;;;24.03;24.54;101523.63;5017877;28;20033;-79
2022/06/21 12:18:14;;;;;;;1.27;0.28;;;;;;;22.77;26.45;101518.25;4999833;28;20126;-80
2022/06/21 12:20:53;;;;;;;1.05;0.73;;;;;;;23.33;27.27;101509.19;4999100;28;20107;-79
2022/06/21 12:23:37;;;;;;;6.25;0.60;;;;;;;24.09;24.89;101514.25;4998855;28;20595;-80
2022/06/21 12:26:05;;;;;;;3.72;0.50;;;;;;;25.09;24.47;101510.66;4988301;28;20057;-80
2022/06/21 12:28:35;;;;;;;3.70;0.35;;;;;;;25.53;22.65;101511.03;5000575;28;20045;-80
2022/06/21 12:31:15;;;;;;;1.05;0.20;;;;;;;25.52;22.92;101507.50;5000343;28;20042;-78